createdAt,value
2018-05-14T00:04:29.334Z,13.80
2018-05-14T00:09:34.237Z,13.90
2018-05-14T00:14:38.444Z,13.90
2018-05-14T00:19:42.533Z,13.90
2018-05-14T00:24:49.488Z,13.80
2018-05-14T00:29:54.752Z,13.90
2018-05-14T00:34:58.775Z,13.80
2018-05-14T00:40:03.468Z,13.90
2018-05-14T00:45:07.353Z,13.90
2018-05-14T00:50:12.171Z,13.80
2018-05-14T00:55:18.517Z,13.80
2018-05-14T01:05:39.531Z,13.80
2018-05-14T01:10:49.558Z,13.80
2018-05-14T01:15:55.643Z,13.80
2018-05-14T01:21:01.154Z,13.80
2018-05-14T01:26:04.434Z,13.70
2018-05-14T01:31:08.905Z,13.70
2018-05-14T01:36:14.517Z,13.80
2018-05-14T01:41:23.268Z,13.80
2018-05-14T01:46:30.068Z,13.70
2018-05-14T01:51:34.715Z,13.70
2018-05-14T01:56:38.369Z,13.80
2018-05-14T02:01:46.308Z,13.80
2018-05-14T02:06:54.579Z,13.70
2018-05-14T02:11:59.346Z,13.70
2018-05-14T02:17:03.965Z,13.70
2018-05-14T02:22:10.111Z,13.70
2018-05-14T02:32:34.116Z,13.70
2018-05-14T02:37:51.762Z,13.70
2018-05-14T02:48:19.739Z,13.70
2018-05-14T02:53:24.975Z,13.70
2018-05-14T02:58:29.110Z,13.60
2018-05-14T03:03:35.298Z,13.60
2018-05-14T03:14:08.693Z,13.60
2018-05-14T03:19:22.361Z,13.60
2018-05-14T03:24:33.966Z,13.50
2018-05-14T03:29:48.556Z,13.50
2018-05-14T03:34:56.050Z,13.50
2018-05-14T03:40:12.071Z,13.50
2018-05-14T03:50:55.103Z,13.50
2018-05-14T03:56:11.589Z,13.50
2018-05-14T04:01:42.859Z,13.50
2018-05-14T04:12:57.979Z,13.60
2018-05-14T04:18:39.997Z,13.60
2018-05-14T04:23:53.700Z,13.70
2018-05-14T04:34:32.811Z,13.70
2018-05-14T04:45:04.728Z,13.80
2018-05-14T04:50:38.686Z,13.70
2018-05-14T05:01:34.472Z,13.80
2018-05-14T05:12:43.782Z,13.90
2018-05-14T05:17:47.300Z,13.90
2018-05-14T05:22:50.473Z,14.00
2018-05-14T05:27:54.640Z,14.00
2018-05-14T05:32:57.762Z,14.10
2018-05-14T05:38:01.148Z,14.10
2018-05-14T05:43:04.958Z,14.20
2018-05-14T05:53:14.051Z,14.20
2018-05-14T05:58:17.229Z,14.30
2018-05-14T06:03:21.085Z,14.30
2018-05-14T06:08:25.407Z,14.40
2018-05-14T06:18:33.318Z,14.60
2018-05-14T06:23:36.801Z,14.70
2018-05-14T06:28:39.893Z,14.70
2018-05-14T06:33:42.987Z,14.80
2018-05-14T06:38:46.862Z,14.80
2018-05-14T06:43:49.964Z,14.90
2018-05-14T06:48:53.855Z,15.00
2018-05-14T06:53:56.953Z,15.10
2018-05-14T06:59:01.498Z,15.20
2018-05-14T07:04:06.103Z,15.30
2018-05-14T07:09:10.705Z,15.50
2018-05-14T07:14:14.203Z,15.50
2018-05-14T07:19:18.182Z,15.50
2018-05-14T07:24:21.150Z,15.60
2018-05-14T07:29:24.251Z,15.60
2018-05-14T07:34:27.361Z,15.70
2018-05-14T07:39:31.237Z,15.80
2018-05-14T07:44:34.351Z,16.00
2018-05-14T07:54:42.286Z,16.30
2018-05-14T07:59:46.169Z,16.50
2018-05-14T08:04:50.397Z,16.60
2018-05-14T08:09:54.339Z,16.80
2018-05-14T08:14:58.349Z,16.90
2018-05-14T08:20:01.528Z,17.10
2018-05-14T08:25:04.667Z,17.20
2018-05-14T08:30:08.900Z,17.20
2018-05-14T08:35:12.773Z,17.20
2018-05-14T08:45:21.834Z,17.60
2018-05-14T08:50:25.331Z,17.80
2018-05-14T08:55:29.201Z,17.90
2018-05-14T09:00:32.289Z,17.90
2018-05-14T09:05:35.383Z,18.00
2018-05-14T09:10:39.236Z,18.30
2018-05-14T09:15:43.453Z,18.60
2018-05-14T09:20:46.561Z,18.90
2018-05-14T09:25:50.054Z,19.20
2018-05-14T09:30:53.156Z,19.40
2018-05-14T09:35:57.038Z,19.60
2018-05-14T09:41:00.906Z,19.70
2018-05-14T09:46:04.790Z,19.80
2018-05-14T09:51:10.204Z,20.20
2018-05-14T09:56:13.326Z,20.40
2018-05-14T10:01:16.475Z,20.50
2018-05-14T10:06:19.603Z,20.50
2018-05-14T10:11:22.707Z,20.50
2018-05-14T10:16:26.847Z,20.60
2018-05-14T10:21:30.714Z,21.00
2018-05-14T10:26:35.591Z,21.30
2018-05-14T10:31:38.750Z,21.30
2018-05-14T10:41:46.290Z,21.40
2018-05-14T10:46:49.471Z,21.60
2018-05-14T10:51:53.606Z,21.90
2018-05-14T10:56:58.213Z,22.00
2018-05-14T11:02:01.294Z,21.80
2018-05-14T11:07:04.770Z,21.80
2018-05-14T11:12:07.891Z,21.70
2018-05-14T11:17:10.979Z,21.90
2018-05-14T11:22:15.586Z,22.00
2018-05-14T11:27:18.688Z,22.10
2018-05-14T11:32:21.781Z,21.90
2018-05-14T11:37:24.888Z,21.90
2018-05-14T11:42:28.747Z,21.80
2018-05-14T11:52:37.457Z,21.70
2018-05-14T11:57:40.672Z,21.80
2018-05-14T12:02:44.223Z,21.80
2018-05-14T12:07:48.413Z,21.90
2018-05-14T12:12:52.266Z,21.90
2018-05-14T12:17:56.853Z,22.00
2018-05-14T12:22:59.939Z,22.10
2018-05-14T12:28:03.418Z,22.20
2018-05-14T12:33:06.907Z,22.10
2018-05-14T12:38:09.985Z,22.20
2018-05-14T12:48:17.542Z,22.30
2018-05-14T12:53:21.408Z,22.40
2018-05-14T12:58:24.893Z,22.50
2018-05-14T13:03:27.982Z,22.40
2018-05-14T13:08:31.833Z,22.50
2018-05-14T13:13:35.702Z,22.60
2018-05-14T13:18:39.433Z,22.70
2018-05-14T13:23:44.075Z,22.70
2018-05-14T13:28:47.223Z,22.80
2018-05-14T13:33:51.082Z,22.90
2018-05-14T13:38:55.328Z,23.00
2018-05-14T13:43:58.409Z,23.10
2018-05-14T13:49:02.109Z,23.20
2018-05-14T13:54:05.206Z,23.40
2018-05-14T13:59:09.111Z,23.50
2018-05-14T14:04:12.245Z,23.60
2018-05-14T14:09:15.762Z,23.70
2018-05-14T14:14:18.855Z,23.80
2018-05-14T14:19:21.957Z,23.90
2018-05-14T14:24:25.070Z,23.90
2018-05-14T14:29:28.920Z,24.20
2018-05-14T14:34:33.155Z,24.30
2018-05-14T14:39:36.256Z,24.30
2018-05-14T14:44:39.349Z,24.40
2018-05-14T14:49:42.845Z,24.60
2018-05-14T14:54:47.977Z,24.80
2018-05-14T14:59:51.458Z,24.90
2018-05-14T15:04:56.051Z,24.90
2018-05-14T15:09:59.981Z,25.00
2018-05-14T15:15:03.831Z,25.10
2018-05-14T15:20:08.111Z,25.10
2018-05-14T15:25:11.120Z,25.10
2018-05-14T15:30:14.633Z,25.10
2018-05-14T15:40:22.243Z,25.00
2018-05-14T15:45:25.342Z,24.90
2018-05-14T15:50:28.835Z,24.80
2018-05-14T15:55:32.684Z,24.80
2018-05-14T16:00:36.548Z,24.70
2018-05-14T16:05:39.635Z,24.70
2018-05-14T16:10:42.735Z,24.90
2018-05-14T16:15:47.314Z,25.10
2018-05-14T16:20:50.523Z,24.90
2018-05-14T16:25:53.507Z,24.80
2018-05-14T16:30:56.593Z,24.60
2018-05-14T16:35:59.971Z,24.60
2018-05-14T16:41:03.054Z,24.60
2018-05-14T16:46:06.144Z,24.60
2018-05-14T16:51:09.237Z,24.60
2018-05-14T16:56:12.705Z,24.60
2018-05-14T17:01:15.796Z,24.50
2018-05-14T17:06:18.889Z,24.40
2018-05-14T17:11:21.978Z,24.30
2018-05-14T17:16:26.212Z,24.30
2018-05-14T17:21:30.093Z,24.30
2018-05-14T17:26:35.728Z,24.20
2018-05-14T17:31:38.824Z,24.10
2018-05-14T17:36:42.666Z,24.00
2018-05-14T17:41:45.756Z,24.00
2018-05-14T17:46:48.847Z,24.10
2018-05-14T17:51:52.784Z,23.90
2018-05-14T17:56:56.634Z,23.80
2018-05-14T18:02:00.185Z,23.70
2018-05-14T18:07:03.678Z,23.70
2018-05-14T18:12:07.890Z,23.70
2018-05-14T18:17:14.454Z,23.90
2018-05-14T18:22:23.579Z,24.00
2018-05-14T18:32:35.623Z,24.00
2018-05-14T18:37:39.106Z,23.80
2018-05-14T18:42:42.189Z,23.70
2018-05-14T18:47:46.046Z,23.50
2018-05-14T18:52:50.510Z,23.40
2018-05-14T18:57:55.158Z,23.30
2018-05-14T19:08:02.715Z,23.00
2018-05-14T19:13:05.979Z,22.80
2018-05-14T19:18:09.470Z,22.70
2018-05-14T19:23:19.268Z,22.40
2018-05-14T19:28:28.349Z,22.20
2018-05-14T19:33:38.484Z,22.10
2018-05-14T19:38:42.707Z,21.80
2018-05-14T19:43:46.177Z,21.60
2018-05-14T19:48:50.405Z,21.40
2018-05-14T19:53:54.656Z,21.20
2018-05-14T19:58:59.687Z,21.00
2018-05-14T20:04:03.686Z,20.60
2018-05-14T20:09:07.152Z,20.40
2018-05-14T20:19:16.041Z,19.80
2018-05-14T20:24:19.890Z,19.60
2018-05-14T20:29:23.751Z,19.30
2018-05-14T20:34:28.491Z,19.10
2018-05-14T20:39:32.365Z,19.00
2018-05-14T20:49:41.100Z,18.70
2018-05-14T20:54:44.945Z,18.50
2018-05-14T20:59:48.524Z,18.30
2018-05-14T21:04:52.299Z,18.30
2018-05-14T21:09:55.397Z,18.10
2018-05-14T21:14:58.870Z,17.90
2018-05-14T21:20:02.723Z,17.80
2018-05-14T21:25:05.809Z,17.70
2018-05-14T21:30:08.913Z,17.60
2018-05-14T21:35:12.006Z,17.60
2018-05-14T21:40:15.082Z,17.40
2018-05-14T21:45:19.158Z,17.30
2018-05-14T21:50:22.281Z,17.20
2018-05-14T21:55:25.334Z,17.00
2018-05-14T22:00:29.552Z,16.90
2018-05-14T22:10:37.105Z,16.70
2018-05-14T22:15:40.602Z,16.50
2018-05-14T22:20:43.706Z,16.40
2018-05-14T22:25:48.349Z,16.20
2018-05-14T22:30:52.195Z,16.10
2018-05-14T22:41:00.142Z,16.00
2018-05-14T22:46:03.245Z,15.90
2018-05-14T22:51:06.326Z,15.80
2018-05-14T22:56:09.451Z,15.80
2018-05-14T23:01:13.673Z,15.60
2018-05-14T23:06:17.525Z,15.60
2018-05-14T23:11:20.628Z,15.50
2018-05-14T23:21:28.939Z,15.30
2018-05-14T23:26:32.014Z,15.20
2018-05-14T23:31:35.109Z,15.10
2018-05-14T23:36:38.970Z,15.00
2018-05-14T23:41:43.202Z,14.90
2018-05-14T23:56:55.925Z,14.40
